createdAt,value
2023-02-13T08:48:46.740Z,29.17
2023-02-13T08:51:20.785Z,23.80
2023-02-13T08:53:48.226Z,23.70
2023-02-13T08:56:15.285Z,25.30
2023-02-13T08:58:43.594Z,20.77
2023-02-13T09:01:10.755Z,19.88
2023-02-13T09:03:38.148Z,21.45
2023-02-13T09:06:05.567Z,21.88
2023-02-13T09:08:32.850Z,19.45
2023-02-13T09:11:01.366Z,18.70
2023-02-13T09:13:35.612Z,18.58
2023-02-13T09:16:06.041Z,17.50
2023-02-13T09:18:33.631Z,16.83
2023-02-13T09:21:01.859Z,15.43
2023-02-13T09:23:32.077Z,12.93
2023-02-13T09:26:01.078Z,18.83
2023-02-13T09:28:31.494Z,18.23
2023-02-13T09:30:58.967Z,16.00
2023-02-13T09:33:26.367Z,21.13
2023-02-13T09:35:53.524Z,15.18
2023-02-13T09:38:20.501Z,16.25
2023-02-13T09:40:53.701Z,17.25
2023-02-13T09:43:28.680Z,15.23
2023-02-13T09:45:58.963Z,15.35
2023-02-13T09:48:34.871Z,11.48
2023-02-13T09:51:02.127Z,13.27
2023-02-13T09:53:29.718Z,12.93
2023-02-13T09:56:01.296Z,10.95
2023-02-13T09:58:34.212Z,12.70
2023-02-13T10:01:02.006Z,11.13
2023-02-13T10:03:33.714Z,15.80
2023-02-13T10:06:09.778Z,17.60
2023-02-13T10:08:52.379Z,12.13
2023-02-13T10:11:54.141Z,9.52
2023-02-13T10:14:26.242Z,8.60
2023-02-13T10:17:01.038Z,8.88
2023-02-13T10:19:49.290Z,7.57
2023-02-13T10:22:22.170Z,10.40
2023-02-13T10:25:11.312Z,8.80
2023-02-13T10:27:54.895Z,10.20
2023-02-13T10:30:55.732Z,9.18
2023-02-13T10:33:28.737Z,10.23
2023-02-13T10:36:11.751Z,7.47
2023-02-13T10:38:56.325Z,6.97
2023-02-13T10:41:24.923Z,7.72
2023-02-13T10:43:59.767Z,7.88
2023-02-13T10:46:47.124Z,7.18
2023-02-13T10:49:23.581Z,7.95
2023-02-13T10:52:22.557Z,8.27
2023-02-13T10:55:12.967Z,8.95
2023-02-13T10:57:46.097Z,10.25
2023-02-13T11:00:20.834Z,7.90
2023-02-13T11:02:47.858Z,12.32
2023-02-13T11:05:18.264Z,8.38
2023-02-13T11:07:46.936Z,12.93
2023-02-13T11:10:19.471Z,7.72
2023-02-13T11:12:46.703Z,8.45
2023-02-13T11:15:26.545Z,6.03
2023-02-13T11:18:00.457Z,8.98
2023-02-13T11:20:44.519Z,8.88
2023-02-13T11:23:30.647Z,8.20
2023-02-13T11:26:23.497Z,6.18
2023-02-13T11:29:02.109Z,8.82
2023-02-13T11:31:31.839Z,11.13
2023-02-13T11:34:00.182Z,6.65
2023-02-13T11:36:27.511Z,7.50
2023-02-13T11:39:02.997Z,7.97
2023-02-13T11:41:30.696Z,9.32
2023-02-13T11:44:04.104Z,8.88
2023-02-13T11:46:52.119Z,8.52
2023-02-13T11:49:20.546Z,7.72
2023-02-13T11:51:58.181Z,8.18
2023-02-13T11:54:29.993Z,7.40
2023-02-13T11:57:06.805Z,7.05
2023-02-13T11:59:40.363Z,7.45
2023-02-13T12:02:29.841Z,7.18
2023-02-13T12:05:23.624Z,6.63
2023-02-13T12:07:50.962Z,12.00
2023-02-13T12:10:26.211Z,6.82
2023-02-13T12:13:13.992Z,8.73
2023-02-13T12:15:41.297Z,7.05
2023-02-13T12:18:40.226Z,8.48
2023-02-13T12:21:23.584Z,13.40
2023-02-13T12:24:08.725Z,6.95
2023-02-13T12:26:51.360Z,5.85
2023-02-13T12:29:48.303Z,10.10
2023-02-13T12:32:18.099Z,9.73
2023-02-13T12:35:03.390Z,9.70
2023-02-13T12:37:36.092Z,7.68
2023-02-13T12:40:19.045Z,11.45
2023-02-13T12:43:20.936Z,9.68
2023-02-13T12:46:39.851Z,9.93
2023-02-13T12:49:29.800Z,9.35
2023-02-13T12:52:33.923Z,10.30
2023-02-13T12:55:13.580Z,7.63
2023-02-13T12:58:03.304Z,8.63
2023-02-13T13:00:49.732Z,9.30
2023-02-13T13:03:35.641Z,17.77
2023-02-13T13:06:26.024Z,10.23
2023-02-13T13:09:24.277Z,7.97
2023-02-13T13:11:51.624Z,9.57
2023-02-13T13:14:34.659Z,16.35
2023-02-13T13:17:07.906Z,8.90
2023-02-13T13:19:54.213Z,14.65
2023-02-13T13:22:25.562Z,8.80
2023-02-13T13:25:18.994Z,14.18
2023-02-13T13:27:48.834Z,8.93
2023-02-13T13:30:25.313Z,8.40
2023-02-13T13:33:21.694Z,7.82
2023-02-13T13:36:01.759Z,9.00
2023-02-13T13:38:53.070Z,8.07
2023-02-13T13:41:31.578Z,7.72
2023-02-13T13:44:17.148Z,10.98
2023-02-13T13:46:56.257Z,9.60
2023-02-13T13:49:42.848Z,16.20
2023-02-13T13:52:19.663Z,10.43
2023-02-13T13:54:51.497Z,8.57
2023-02-13T13:57:39.266Z,11.98
2023-02-13T14:00:11.536Z,14.98
2023-02-13T14:02:46.783Z,8.73
2023-02-13T14:05:29.185Z,11.18
2023-02-13T14:08:04.264Z,8.82
2023-02-13T14:10:31.273Z,10.48
2023-02-13T14:12:58.308Z,8.07
2023-02-13T14:15:34.708Z,10.60
2023-02-13T14:18:13.805Z,10.27
2023-02-13T14:20:44.556Z,10.85
2023-02-13T14:23:36.350Z,8.55
2023-02-13T14:26:15.342Z,8.55
2023-02-13T14:28:43.261Z,8.18
2023-02-13T14:31:30.225Z,10.35
2023-02-13T14:34:09.600Z,7.30
2023-02-13T14:36:45.741Z,9.95
2023-02-13T14:39:37.000Z,9.27
2023-02-13T14:42:06.482Z,11.40
2023-02-13T14:44:39.368Z,11.93
2023-02-13T14:47:40.415Z,7.88
2023-02-13T14:50:08.062Z,10.95
2023-02-13T14:52:37.421Z,7.63
2023-02-13T14:55:16.968Z,11.38
2023-02-13T14:57:52.084Z,6.20
2023-02-13T15:00:53.610Z,9.90
2023-02-13T15:03:32.984Z,7.57
2023-02-13T15:06:03.460Z,12.60
2023-02-13T15:08:34.770Z,9.15
2023-02-13T15:11:02.276Z,12.57
2023-02-13T15:13:34.126Z,12.48
2023-02-13T15:16:06.538Z,8.73
2023-02-13T15:18:41.909Z,8.82
2023-02-13T15:21:13.851Z,8.90
2023-02-13T15:23:41.111Z,20.92
2023-02-13T15:26:08.172Z,6.32
2023-02-13T15:28:36.380Z,11.48
2023-02-13T15:31:08.715Z,10.30
2023-02-13T15:34:02.054Z,5.43
2023-02-13T15:36:35.718Z,12.38
2023-02-13T15:39:09.522Z,13.13
2023-02-13T15:41:47.031Z,8.07
2023-02-13T15:44:18.029Z,8.73
2023-02-13T15:46:48.035Z,10.23
2023-02-13T15:49:45.138Z,18.30
2023-02-13T15:52:20.655Z,9.80
2023-02-13T15:54:49.793Z,14.60
2023-02-13T15:57:21.147Z,14.27
2023-02-13T15:59:48.165Z,13.25
2023-02-13T16:02:24.477Z,8.82
2023-02-13T16:07:20.645Z,12.30
2023-02-13T16:09:47.758Z,10.63
2023-02-13T16:12:27.093Z,11.65
2023-02-13T16:14:56.868Z,12.88
2023-02-13T16:17:29.409Z,14.80
2023-02-13T16:20:09.130Z,15.75
2023-02-13T16:22:54.415Z,16.70
2023-02-13T16:25:40.159Z,12.73
2023-02-13T16:31:23.807Z,9.70
2023-02-13T16:33:55.188Z,12.32
2023-02-13T16:36:29.426Z,11.15
2023-02-13T16:38:57.458Z,11.50
2023-02-13T16:41:32.647Z,11.93
2023-02-13T16:44:05.340Z,10.98
2023-02-13T16:46:40.784Z,18.83
2023-02-13T16:49:16.382Z,14.17
2023-02-13T16:51:57.374Z,13.32
2023-02-13T16:54:33.789Z,17.85
2023-02-13T16:59:56.964Z,18.50
2023-02-13T17:02:32.355Z,22.80
2023-02-13T17:05:09.119Z,11.77
2023-02-13T17:07:41.813Z,18.30
2023-02-13T17:13:19.260Z,17.77
2023-02-13T17:15:47.749Z,16.42
2023-02-13T17:18:15.204Z,14.63
2023-02-13T17:20:43.696Z,15.68
2023-02-13T17:23:17.819Z,17.33
2023-02-13T17:29:42.109Z,14.70
2023-02-13T17:32:15.218Z,16.67
